METAR AND TAF INFORMATION
METAR FOR LTAG
ADDS - METARS form results

(0732 UTC 23 January 2019)
Data provider http://aviationweather.gov/metar/data/
 
METAR text: LTAG 230720Z 06010KT CAVOK 13/02 Q1019 NOSIG
Conditions at: LTAG (ADANA/INCIRLIK A, TR) observed 0720 UTC 23 January 2019
Temperature: 13.0°C (55°F)
Dewpoint: 2.0°C (36°F) [RH = 47%]
Pressure (altimeter): 30.09 inches Hg (1019.0 mb)
Winds: from the ENE (60 degrees) at 12 MPH (10 knots; 5.1 m/s)
Visibility: 6 or more miles (10+ km)
Ceiling: ceiling and visibility are OK
Clouds: unknown
Weather: no significant weather observed at this time

METAR text: LTAG 230650Z 05005KT CAVOK 12/02 Q1019 NOSIG
Conditions at: LTAG (ADANA/INCIRLIK A, TR) observed 0650 UTC 23 January 2019
Temperature: 12.0°C (54°F)
Dewpoint: 2.0°C (36°F) [RH = 50%]
Pressure (altimeter): 30.09 inches Hg (1019.0 mb)
Winds: from the NE (50 degrees) at 6 MPH (5 knots; 2.6 m/s)
Visibility: 6 or more miles (10+ km)
Ceiling: ceiling and visibility are OK
Clouds: unknown
Weather: no significant weather observed at this time

Forecast for: LTAG (ADANA/INCIRLIK A, TR)
Text: TAF LTAG 230440Z 2306/2406 02008KT CAVOK
Forecast period: 0600 UTC 23 January 2019 to 0600 UTC 24 January 2019
Forecast type: FROM: standard forecast or significant change
Winds: from the NNE (20 degrees) at 9 MPH (8 knots; 4.1 m/s)
Visibility: 6 or more miles 10+ km)
Ceiling: unknown
Clouds: missing
Weather: NSW  (no significant weather)

 AIRPORT MAP

 RUNWAY INFORMATION
Runway 05 Runway length 10000 ft Runway width 148 ft
Runway elevation 175 ft Runway displaced threshold 0 ft Runway heading 53
Runway 23 Runway length 10000 ft Runway width 148 ft
Runway elevation 238 ft Runway displaced threshold 0 ft Runway heading 233

 AIRPORT FREQUENCIES
Type A/D Name APP Frequency 128 MHZ
Type AC Name ARRIVAL Frequency 26.262 MHZ
Type ACP Name AMC AIRLIF Frequency 37.985 MHZ
Type ATIS Name ATIS Frequency 37.822 MHZ
Type GND Name GND Frequency 123.025 MHZ
Type OPS Name OPC MSN DR Frequency 31.54 MHZ
Type PAR Name PERCISION Frequency 34.187 MHZ
Type PMSV Name PMSV METRO Frequency 28.442 MHZ
Type POST Name COMD POST Frequency 31.54 MHZ
Type PTD Name DISPATCH Frequency 33.905 MHZ
Type SF Name SUPERVISOR Frequency 27.54 MHZ
Type SFA Name SINGLE FRE Frequency 37.822 MHZ
Type TAFR Name TUAF RAPCO Frequency 23.512 MHZ
Type TWR Name TWR Frequency 129.4 MHZ

 AIRPORT NEAR NAVIGATION AIDS
Type TACAN Name Incirlik Frequency 108400 KHZ